createdAt,value
2023-04-19T00:01:50.326Z,14.88
2023-04-19T00:04:19.065Z,18.70
2023-04-19T00:06:48.041Z,15.38
2023-04-19T00:09:25.599Z,18.67
2023-04-19T00:12:00.220Z,16.65
2023-04-19T00:14:28.997Z,17.40
2023-04-19T00:16:57.424Z,17.05
2023-04-19T00:19:27.757Z,15.77
2023-04-19T00:21:56.111Z,16.47
2023-04-19T00:24:24.997Z,16.33
2023-04-19T00:26:57.854Z,18.20
2023-04-19T00:29:25.936Z,15.60
2023-04-19T00:31:54.005Z,15.88
2023-04-19T00:34:22.185Z,15.43
2023-04-19T00:36:49.925Z,15.15
2023-04-19T00:39:18.559Z,18.88
2023-04-19T00:41:46.615Z,16.73
2023-04-19T00:44:17.294Z,17.02
2023-04-19T00:46:46.759Z,16.10
2023-04-19T00:49:18.076Z,19.63
2023-04-19T00:51:47.850Z,14.98
2023-04-19T00:54:19.381Z,15.77
2023-04-19T00:56:50.676Z,16.35
2023-04-19T00:59:20.383Z,16.73
2023-04-19T01:01:49.256Z,16.58
2023-04-19T01:04:17.877Z,19.63
2023-04-19T01:06:48.002Z,18.73
2023-04-19T01:09:20.113Z,17.70
2023-04-19T01:11:48.877Z,18.00
2023-04-19T01:14:17.249Z,15.05
2023-04-19T01:16:49.473Z,17.05
2023-04-19T01:19:32.200Z,17.27
2023-04-19T01:22:00.439Z,16.60
2023-04-19T01:24:33.673Z,19.77
2023-04-19T01:27:07.049Z,17.73
2023-04-19T01:29:35.449Z,19.40
2023-04-19T01:32:03.317Z,18.65
2023-04-19T01:34:32.088Z,20.48
2023-04-19T01:36:59.948Z,15.23
2023-04-19T01:39:30.089Z,19.60
2023-04-19T01:41:58.078Z,17.13
2023-04-19T01:44:29.210Z,18.55
2023-04-19T01:46:57.281Z,19.80
2023-04-19T01:49:25.261Z,18.73
2023-04-19T01:51:53.232Z,17.40
2023-04-19T01:54:28.335Z,20.10
2023-04-19T01:56:58.681Z,16.40
2023-04-19T01:59:26.895Z,16.65
2023-04-19T02:01:54.887Z,16.47
2023-04-19T02:04:22.934Z,17.73
2023-04-19T02:06:50.940Z,19.00
2023-04-19T02:09:20.023Z,21.77
2023-04-19T02:11:47.913Z,17.83
2023-04-19T02:14:17.886Z,18.97
2023-04-19T02:16:46.134Z,16.13
2023-04-19T02:19:14.999Z,19.50
2023-04-19T02:21:43.004Z,17.58
2023-04-19T02:24:10.984Z,15.38
2023-04-19T02:26:38.975Z,17.13
2023-04-19T02:29:09.934Z,17.30
2023-04-19T02:31:41.149Z,13.63
2023-04-19T02:34:10.699Z,15.43
2023-04-19T02:36:39.296Z,16.48
2023-04-19T02:39:08.964Z,16.03
2023-04-19T02:41:42.756Z,17.20
2023-04-19T02:44:13.911Z,16.77
2023-04-19T02:46:54.272Z,15.10
2023-04-19T02:49:28.411Z,14.45
2023-04-19T02:51:56.477Z,15.40
2023-04-19T02:54:25.632Z,16.08
2023-04-19T02:56:54.319Z,17.30
2023-04-19T02:59:22.131Z,16.88
2023-04-19T03:01:52.010Z,15.48
2023-04-19T03:04:22.143Z,15.80
2023-04-19T03:06:51.256Z,15.25
2023-04-19T03:09:19.976Z,13.65
2023-04-19T03:11:47.970Z,15.90
2023-04-19T03:14:18.773Z,15.95
2023-04-19T03:16:47.331Z,12.83
2023-04-19T03:19:20.361Z,14.48
2023-04-19T03:21:53.487Z,12.88
2023-04-19T03:24:29.456Z,14.77
2023-04-19T03:27:01.904Z,12.52
2023-04-19T03:29:33.708Z,12.47
2023-04-19T03:32:06.388Z,13.43
2023-04-19T03:34:37.342Z,13.38
2023-04-19T03:37:05.290Z,12.35
2023-04-19T03:39:35.148Z,13.00
2023-04-19T03:42:07.840Z,12.53
2023-04-19T03:44:48.155Z,12.57
2023-04-19T03:47:18.546Z,11.10
2023-04-19T03:49:53.542Z,10.30
2023-04-19T03:52:22.776Z,11.45
2023-04-19T03:54:54.370Z,10.90
2023-04-19T03:57:36.524Z,13.13
2023-04-19T04:00:13.208Z,9.88
2023-04-19T04:02:44.040Z,10.80
2023-04-19T04:05:16.703Z,10.25
2023-04-19T04:07:46.043Z,9.93
2023-04-19T04:10:14.532Z,12.30
2023-04-19T04:12:44.458Z,14.00
2023-04-19T04:15:18.470Z,12.07
2023-04-19T04:17:51.653Z,11.02
2023-04-19T04:20:22.822Z,12.83
2023-04-19T04:22:54.100Z,12.60
2023-04-19T04:25:24.542Z,10.93
2023-04-19T04:27:53.069Z,12.45
2023-04-19T04:30:28.037Z,11.95
2023-04-19T04:33:00.701Z,14.37
2023-04-19T04:35:36.701Z,14.23
2023-04-19T04:38:21.581Z,11.80
2023-04-19T04:40:54.222Z,11.43
2023-04-19T04:43:23.336Z,11.85
2023-04-19T04:45:52.084Z,14.47
2023-04-19T04:48:20.443Z,11.73
2023-04-19T04:50:50.471Z,11.18
2023-04-19T04:53:19.265Z,12.38
2023-04-19T04:55:47.712Z,11.65
2023-04-19T04:58:16.646Z,10.87
2023-04-19T05:00:56.682Z,16.00
2023-04-19T05:03:26.914Z,12.73
2023-04-19T05:05:59.940Z,11.82
2023-04-19T05:08:28.286Z,12.90
2023-04-19T05:11:06.661Z,12.57
2023-04-19T05:13:34.752Z,13.18
2023-04-19T05:16:02.718Z,12.05
2023-04-19T05:18:31.378Z,14.05
2023-04-19T05:21:01.109Z,10.88
2023-04-19T05:23:33.390Z,11.77
2023-04-19T05:26:01.717Z,12.98
2023-04-19T05:28:30.764Z,14.93
2023-04-19T05:31:08.464Z,12.63
2023-04-19T05:33:45.049Z,10.68
2023-04-19T05:36:16.428Z,11.63
2023-04-19T05:38:46.531Z,9.90
2023-04-19T05:41:14.860Z,13.77
2023-04-19T05:43:43.029Z,11.23
2023-04-19T05:46:11.490Z,12.38
2023-04-19T05:48:39.414Z,10.60
2023-04-19T05:51:32.962Z,11.52
2023-04-19T05:54:34.613Z,11.70
2023-04-19T05:57:03.221Z,11.38
2023-04-19T05:59:31.343Z,13.50
2023-04-19T06:02:01.101Z,9.67
2023-04-19T06:04:29.445Z,12.80
2023-04-19T06:06:59.056Z,11.70
2023-04-19T06:09:26.929Z,12.82
2023-04-19T06:11:56.805Z,11.38
2023-04-19T06:14:25.453Z,9.93
2023-04-19T06:16:53.322Z,12.48
2023-04-19T06:19:22.834Z,9.80
2023-04-19T06:21:51.214Z,12.90
2023-04-19T06:24:23.895Z,9.55
2023-04-19T06:26:52.954Z,12.93
2023-04-19T06:29:23.913Z,8.13
2023-04-19T06:31:51.987Z,11.52
2023-04-19T06:34:20.204Z,8.60
2023-04-19T06:36:48.238Z,9.40
2023-04-19T06:39:17.943Z,9.07
2023-04-19T06:41:48.909Z,10.20
2023-04-19T06:44:18.482Z,8.10
2023-04-19T06:46:46.549Z,8.07
2023-04-19T06:49:14.645Z,8.38
2023-04-19T06:51:42.689Z,8.27
2023-04-19T06:54:10.614Z,8.70
2023-04-19T06:56:45.613Z,9.13
2023-04-19T06:59:16.761Z,7.18
2023-04-19T07:01:44.960Z,8.23
2023-04-19T07:04:13.877Z,9.57
2023-04-19T07:06:42.040Z,9.27
2023-04-19T07:09:10.577Z,8.00
2023-04-19T07:11:38.679Z,7.10
2023-04-19T07:14:06.586Z,7.03
2023-04-19T07:16:35.965Z,7.27
2023-04-19T07:19:03.897Z,7.55
2023-04-19T07:21:33.521Z,8.40
2023-04-19T07:24:01.594Z,7.38
2023-04-19T07:26:29.511Z,7.03
2023-04-19T07:28:58.242Z,8.17
2023-04-19T07:31:26.769Z,7.28
2023-04-19T07:33:56.324Z,6.93
2023-04-19T07:36:24.354Z,8.10
2023-04-19T07:38:52.249Z,8.05
2023-04-19T07:41:20.120Z,10.80
2023-04-19T07:43:48.225Z,7.80
2023-04-19T07:46:17.788Z,8.40
2023-04-19T07:48:46.401Z,5.43
2023-04-19T07:51:17.571Z,5.85
2023-04-19T07:53:45.596Z,6.30
2023-04-19T07:56:14.307Z,5.22
2023-04-19T07:58:43.070Z,5.88
2023-04-19T08:01:12.571Z,5.55
2023-04-19T08:03:41.610Z,3.97
2023-04-19T08:06:09.957Z,4.77
2023-04-19T08:08:39.639Z,5.60
2023-04-19T08:11:07.697Z,4.45
2023-04-19T08:13:36.432Z,7.45
2023-04-19T08:16:32.334Z,5.28
2023-04-19T08:18:53.055Z,5.37
2023-04-19T08:21:26.062Z,4.90
2023-04-19T08:24:01.673Z,4.63
2023-04-19T08:26:30.949Z,6.20
2023-04-19T08:28:58.979Z,4.43
2023-04-19T08:31:27.119Z,4.90
2023-04-19T08:33:54.998Z,4.65
2023-04-19T08:36:35.495Z,4.82
2023-04-19T08:39:17.601Z,4.38
2023-04-19T08:42:02.594Z,5.90
2023-04-19T08:44:37.401Z,4.57
2023-04-19T08:47:09.052Z,4.35
2023-04-19T08:49:39.003Z,5.15
2023-04-19T08:52:11.108Z,4.53
2023-04-19T08:54:42.151Z,5.00
2023-04-19T08:57:12.426Z,4.97
2023-04-19T08:59:40.971Z,6.10
2023-04-19T09:02:09.018Z,5.47
2023-04-19T09:04:38.614Z,4.40
2023-04-19T09:07:08.314Z,5.40
2023-04-19T09:09:45.748Z,5.27
2023-04-19T09:12:22.483Z,3.80
2023-04-19T09:15:01.140Z,5.47
2023-04-19T09:17:29.947Z,4.47
2023-04-19T09:19:59.558Z,3.13
2023-04-19T09:22:29.781Z,5.43
2023-04-19T09:27:34.256Z,5.35
2023-04-19T09:30:03.381Z,3.60
2023-04-19T09:32:47.429Z,3.58
2023-04-19T09:35:16.121Z,5.13
2023-04-19T09:40:26.915Z,2.40
2023-04-19T09:45:30.455Z,3.83
2023-04-19T09:48:03.877Z,4.43
2023-04-19T09:50:33.846Z,5.75
2023-04-19T09:53:09.272Z,5.55
2023-04-19T09:55:53.268Z,5.10
2023-04-19T10:01:13.938Z,3.97
2023-04-19T10:03:45.487Z,5.20
2023-04-19T10:06:40.120Z,5.15
2023-04-19T10:09:06.489Z,4.05
2023-04-19T10:11:40.245Z,4.78
2023-04-19T10:14:11.040Z,4.10
2023-04-19T10:16:41.057Z,4.38
2023-04-19T10:19:13.937Z,5.40
2023-04-19T10:21:43.783Z,6.90
2023-04-19T10:24:14.232Z,7.03
2023-04-19T10:27:12.976Z,4.50
2023-04-19T10:30:01.451Z,4.30
2023-04-19T10:32:38.268Z,4.55
2023-04-19T10:35:11.308Z,4.93
2023-04-19T10:37:42.162Z,4.85
2023-04-19T10:40:13.034Z,4.83
2023-04-19T10:43:16.147Z,5.25
2023-04-19T10:45:47.407Z,5.25
2023-04-19T10:48:54.521Z,5.70
2023-04-19T10:51:24.528Z,5.82
2023-04-19T10:53:55.184Z,15.60
2023-04-19T10:56:41.117Z,5.47
2023-04-19T10:59:22.467Z,8.45
2023-04-19T11:01:59.800Z,4.72
2023-04-19T11:05:07.009Z,6.55
2023-04-19T11:07:40.884Z,6.00
2023-04-19T11:10:12.040Z,4.97
2023-04-19T11:12:44.120Z,5.13
2023-04-19T11:15:12.784Z,5.07
2023-04-19T11:17:43.548Z,6.30
2023-04-19T11:20:14.568Z,5.63
2023-04-19T11:22:43.919Z,4.38
2023-04-19T11:25:14.112Z,5.50
2023-04-19T11:27:44.053Z,6.68
2023-04-19T11:30:14.163Z,6.57
2023-04-19T11:32:50.803Z,4.80
2023-04-19T11:35:23.515Z,5.97
2023-04-19T11:37:57.022Z,10.07
2023-04-19T11:40:27.892Z,5.20
2023-04-19T11:42:57.417Z,4.03
2023-04-19T11:45:32.091Z,5.73
2023-04-19T11:48:05.743Z,3.60
2023-04-19T11:50:36.001Z,4.60
2023-04-19T11:53:17.992Z,5.43
2023-04-19T11:55:51.634Z,4.18
2023-04-19T11:58:32.208Z,4.37
2023-04-19T12:01:06.729Z,6.90
2023-04-19T12:03:41.087Z,5.20
2023-04-19T12:06:12.903Z,7.00
2023-04-19T12:08:45.303Z,4.15
2023-04-19T12:11:13.201Z,5.60
2023-04-19T12:13:41.663Z,5.45
2023-04-19T12:16:09.907Z,6.40
2023-04-19T12:18:46.321Z,4.50
2023-04-19T12:21:26.354Z,3.65
2023-04-19T12:23:58.426Z,4.10
2023-04-19T12:26:28.413Z,4.78
2023-04-19T12:28:56.752Z,4.65
2023-04-19T12:31:24.780Z,3.97
2023-04-19T12:33:54.545Z,5.22
2023-04-19T12:36:22.441Z,7.47
2023-04-19T12:38:50.328Z,3.63
2023-04-19T12:41:18.543Z,6.60
2023-04-19T12:43:46.474Z,3.53
2023-04-19T12:46:14.416Z,5.13
2023-04-19T12:48:42.593Z,5.17
2023-04-19T12:51:11.959Z,6.43
2023-04-19T12:53:40.003Z,3.42
2023-04-19T12:56:07.989Z,5.20
2023-04-19T12:58:35.832Z,3.58
2023-04-19T13:01:03.766Z,6.27
2023-04-19T13:03:33.292Z,3.60
2023-04-19T13:06:01.295Z,3.80
2023-04-19T13:08:44.271Z,3.00
2023-04-19T13:11:14.419Z,3.97
2023-04-19T13:13:42.464Z,4.37
2023-04-19T13:16:11.117Z,3.33
2023-04-19T13:18:39.132Z,2.67
2023-04-19T13:21:08.210Z,3.08
2023-04-19T13:23:38.033Z,4.30
2023-04-19T13:26:06.308Z,3.83
2023-04-19T13:28:35.928Z,5.03
2023-04-19T13:31:05.141Z,3.35
2023-04-19T13:33:33.293Z,3.22
2023-04-19T13:36:01.288Z,3.63
2023-04-19T13:38:29.166Z,3.50
2023-04-19T13:40:58.534Z,3.92
2023-04-19T13:43:27.943Z,6.00
2023-04-19T13:45:55.825Z,3.90
2023-04-19T13:48:24.049Z,4.25
2023-04-19T13:50:52.662Z,3.47
2023-04-19T13:53:20.430Z,4.38
2023-04-19T13:55:48.339Z,5.03
2023-04-19T13:58:17.720Z,4.50
2023-04-19T14:00:45.893Z,5.82
2023-04-19T14:03:14.331Z,4.93
2023-04-19T14:05:42.548Z,5.85
2023-04-19T14:08:10.583Z,4.72
2023-04-19T14:10:43.000Z,4.43
2023-04-19T14:13:11.502Z,4.88
2023-04-19T14:15:41.278Z,4.17
2023-04-19T14:18:09.664Z,4.40
2023-04-19T14:20:38.234Z,6.78
2023-04-19T14:23:06.593Z,9.48
2023-04-19T14:25:34.476Z,6.72
2023-04-19T14:28:02.224Z,6.13
2023-04-19T14:30:31.207Z,5.78
2023-04-19T14:33:01.234Z,7.00
2023-04-19T14:35:29.470Z,6.32
2023-04-19T14:37:57.538Z,12.30
2023-04-19T14:40:25.589Z,6.50
2023-04-19T14:42:53.540Z,5.40
2023-04-19T14:45:21.573Z,6.00
2023-04-19T14:47:50.246Z,8.52
2023-04-19T14:50:19.941Z,4.88
2023-04-19T14:52:47.932Z,7.10
2023-04-19T14:55:15.720Z,5.57
2023-04-19T14:57:43.609Z,6.15
2023-04-19T15:00:13.700Z,7.28
2023-04-19T15:02:41.884Z,7.75
2023-04-19T15:05:11.179Z,7.77
2023-04-19T15:07:40.828Z,6.07
2023-04-19T15:10:09.775Z,5.45
2023-04-19T15:12:37.770Z,7.63
2023-04-19T15:15:07.009Z,7.95
2023-04-19T15:17:35.012Z,6.53
2023-04-19T15:20:03.177Z,6.38
2023-04-19T15:22:31.501Z,10.75
2023-04-19T15:25:02.047Z,10.15
2023-04-19T15:27:30.200Z,6.18
2023-04-19T15:29:58.349Z,11.13
2023-04-19T15:32:26.521Z,6.25
2023-04-19T15:34:54.412Z,6.85
2023-04-19T15:37:22.370Z,7.05
2023-04-19T15:39:50.573Z,6.40
2023-04-19T15:42:20.572Z,7.13
2023-04-19T15:44:49.298Z,10.02
2023-04-19T15:47:17.721Z,7.53
2023-04-19T15:49:48.049Z,6.00
2023-04-19T15:52:16.049Z,5.60
2023-04-19T15:54:43.963Z,5.97
2023-04-19T15:57:11.935Z,6.85
2023-04-19T15:59:41.220Z,8.35
2023-04-19T16:02:09.173Z,5.65
2023-04-19T16:04:37.326Z,7.88
2023-04-19T16:07:05.423Z,6.93
2023-04-19T16:09:33.437Z,7.75
2023-04-19T16:12:01.463Z,8.38
2023-04-19T16:14:29.467Z,6.40
2023-04-19T16:17:01.410Z,9.25
2023-04-19T16:19:29.289Z,7.30
2023-04-19T16:22:02.896Z,6.10
2023-04-19T16:24:34.440Z,8.18
2023-04-19T16:27:02.758Z,6.65
2023-04-19T16:29:30.833Z,6.55
2023-04-19T16:32:00.230Z,6.80
2023-04-19T16:34:28.193Z,7.30
2023-04-19T16:36:56.201Z,7.32
2023-04-19T16:39:24.269Z,6.25
2023-04-19T16:41:52.985Z,8.40
2023-04-19T16:44:20.924Z,6.00
2023-04-19T16:46:49.191Z,6.55
2023-04-19T16:49:18.936Z,6.57
2023-04-19T16:51:47.212Z,7.60
2023-04-19T16:54:15.065Z,7.18
2023-04-19T16:56:42.977Z,6.30
2023-04-19T16:59:11.045Z,7.75
2023-04-19T17:01:39.519Z,6.93
2023-04-19T17:04:07.965Z,10.90
2023-04-19T17:06:37.553Z,6.30
2023-04-19T17:09:06.163Z,7.00
2023-04-19T17:11:34.485Z,6.57
2023-04-19T17:14:02.406Z,4.88
2023-04-19T17:16:30.331Z,6.75
2023-04-19T17:18:58.258Z,6.25
2023-04-19T17:21:26.187Z,5.07
2023-04-19T17:23:55.593Z,4.13
2023-04-19T17:26:25.839Z,6.53
2023-04-19T17:28:53.876Z,6.25
2023-04-19T17:31:22.149Z,4.90
2023-04-19T17:33:50.179Z,4.43
2023-04-19T17:36:18.616Z,5.60
2023-04-19T17:38:46.561Z,6.20
2023-04-19T17:41:17.157Z,5.53
2023-04-19T17:43:45.636Z,4.40
2023-04-19T17:46:13.996Z,4.27
2023-04-19T17:48:42.125Z,7.00
2023-04-19T17:51:09.999Z,5.35
2023-04-19T17:53:38.035Z,5.25
2023-04-19T17:56:06.110Z,4.57
2023-04-19T17:58:36.474Z,4.93
2023-04-19T18:01:04.758Z,8.13
2023-04-19T18:03:33.368Z,5.65
2023-04-19T18:06:01.621Z,7.07
2023-04-19T18:08:30.529Z,7.20
2023-04-19T18:11:01.282Z,7.00
2023-04-19T18:13:30.076Z,6.68
2023-04-19T18:16:01.527Z,5.97
2023-04-19T18:18:29.594Z,6.65
2023-04-19T18:20:57.761Z,5.68
2023-04-19T18:23:25.883Z,5.97
2023-04-19T18:25:55.328Z,4.32
2023-04-19T18:28:25.239Z,5.63
2023-04-19T18:30:53.145Z,5.55
2023-04-19T18:33:24.632Z,5.32
2023-04-19T18:35:56.452Z,4.43
2023-04-19T18:38:25.925Z,9.57
2023-04-19T18:40:54.557Z,5.03
2023-04-19T18:43:23.919Z,6.05
2023-04-19T18:45:59.440Z,8.25
2023-04-19T18:48:31.565Z,6.93
2023-04-19T18:51:00.531Z,6.38
2023-04-19T18:53:30.729Z,6.38
2023-04-19T18:55:59.422Z,6.28
2023-04-19T18:58:28.262Z,7.93
2023-04-19T19:01:00.058Z,7.37
2023-04-19T19:03:58.017Z,9.73
2023-04-19T19:06:19.705Z,5.85
2023-04-19T19:08:50.033Z,6.07
2023-04-19T19:13:57.103Z,8.43
2023-04-19T19:18:55.747Z,5.85
2023-04-19T19:21:23.849Z,6.75
2023-04-19T19:23:53.685Z,5.97
2023-04-19T19:26:21.983Z,6.00
2023-04-19T19:28:50.417Z,7.03
2023-04-19T19:31:18.441Z,8.07
2023-04-19T19:33:53.673Z,5.75
2023-04-19T19:36:37.622Z,6.07
2023-04-19T19:39:05.784Z,5.83
2023-04-19T19:42:03.463Z,5.60
2023-04-19T19:44:21.898Z,9.50
2023-04-19T19:46:50.668Z,7.32
2023-04-19T19:49:19.252Z,7.93
2023-04-19T19:51:58.682Z,8.70
2023-04-19T19:54:27.586Z,8.63
2023-04-19T19:59:29.861Z,7.25
2023-04-19T20:01:58.445Z,6.38
2023-04-19T20:04:27.711Z,11.03
2023-04-19T20:07:25.769Z,9.10
2023-04-19T20:09:45.157Z,11.90
2023-04-19T20:12:13.865Z,6.68
2023-04-19T20:14:42.386Z,6.45
2023-04-19T20:17:10.252Z,5.53
2023-04-19T20:19:38.117Z,7.85
2023-04-19T20:22:10.214Z,9.18
2023-04-19T20:24:38.821Z,6.30
2023-04-19T20:27:07.474Z,6.70
2023-04-19T20:29:37.424Z,6.13
2023-04-19T20:32:06.105Z,6.10
2023-04-19T20:34:36.769Z,7.68
2023-04-19T20:37:06.920Z,5.38
2023-04-19T20:39:36.585Z,6.95
2023-04-19T20:42:08.374Z,6.77
2023-04-19T20:44:36.805Z,5.95
2023-04-19T20:47:05.775Z,7.22
2023-04-19T20:49:34.769Z,5.95
2023-04-19T20:52:07.776Z,6.82
2023-04-19T20:54:39.017Z,6.27
2023-04-19T20:57:09.491Z,6.88
2023-04-19T20:59:41.440Z,7.03
2023-04-19T21:02:13.499Z,6.47
2023-04-19T21:04:42.797Z,7.78
2023-04-19T21:07:11.435Z,7.00
2023-04-19T21:09:41.706Z,5.97
2023-04-19T21:12:16.211Z,6.82
2023-04-19T21:14:49.352Z,7.55
2023-04-19T21:17:18.369Z,7.57
2023-04-19T21:19:47.262Z,6.60
2023-04-19T21:22:16.036Z,6.40
2023-04-19T21:24:47.540Z,9.30
2023-04-19T21:27:17.905Z,8.00
2023-04-19T21:29:47.373Z,8.77
2023-04-19T21:32:16.609Z,8.70
2023-04-19T21:34:45.926Z,8.25
2023-04-19T21:37:15.509Z,6.57
2023-04-19T21:39:45.442Z,7.28
2023-04-19T21:42:17.638Z,5.95
2023-04-19T21:44:48.918Z,6.43
2023-04-19T21:47:17.539Z,5.93
2023-04-19T21:49:48.656Z,6.68
2023-04-19T21:52:17.838Z,5.82
2023-04-19T21:54:48.944Z,5.68
2023-04-19T21:57:25.423Z,6.20
2023-04-19T21:59:57.245Z,7.10
2023-04-19T22:02:26.004Z,5.00
2023-04-19T22:04:55.883Z,4.82
2023-04-19T22:07:26.773Z,7.55
2023-04-19T22:10:01.504Z,7.07
2023-04-19T22:12:36.191Z,6.55
2023-04-19T22:15:10.819Z,7.97
2023-04-19T22:17:43.370Z,7.55
2023-04-19T22:20:13.609Z,7.15
2023-04-19T22:22:42.661Z,6.13
2023-04-19T22:25:12.713Z,7.38
2023-04-19T22:27:43.755Z,5.57
2023-04-19T22:30:12.755Z,6.20
2023-04-19T22:32:41.925Z,8.18
2023-04-19T22:35:11.387Z,5.67
2023-04-19T22:37:43.157Z,8.07
2023-04-19T22:40:19.209Z,7.50
2023-04-19T22:42:48.404Z,5.72
2023-04-19T22:45:16.945Z,9.27
2023-04-19T22:47:45.282Z,5.90
2023-04-19T22:50:13.265Z,5.07
2023-04-19T22:52:43.238Z,6.65
2023-04-19T22:55:16.469Z,8.10
2023-04-19T22:57:47.765Z,6.90
2023-04-19T23:00:16.967Z,6.30
2023-04-19T23:02:48.566Z,6.72
2023-04-19T23:05:18.107Z,5.25
2023-04-19T23:07:46.401Z,7.28
2023-04-19T23:10:18.446Z,5.70
2023-04-19T23:12:51.093Z,8.93
2023-04-19T23:15:20.573Z,6.50
2023-04-19T23:17:50.185Z,6.90
2023-04-19T23:20:19.050Z,7.28
2023-04-19T23:22:48.904Z,6.72
2023-04-19T23:25:21.433Z,6.13
2023-04-19T23:27:50.775Z,7.72
2023-04-19T23:30:20.828Z,6.55
2023-04-19T23:32:52.688Z,7.32
2023-04-19T23:35:21.012Z,7.03
2023-04-19T23:37:49.393Z,6.33
2023-04-19T23:40:18.851Z,6.03
2023-04-19T23:42:50.155Z,7.10
2023-04-19T23:45:18.895Z,6.47
2023-04-19T23:47:47.924Z,6.60
2023-04-19T23:50:19.698Z,8.93
2023-04-19T23:52:49.604Z,6.40
2023-04-19T23:55:20.442Z,8.65
2023-04-19T23:57:49.054Z,8.18
